Time;durP1;ratioP1;P1;durP2;ratioP2;P2;SDS_P1;SDS_P2;PMS_P1;PMS_P2;Temp;Humidity;BMP_temperature;BMP_pressure;BME280_temperature;BME280_humidity;BME280_pressure;Samples;Min_cycle;Max_cycle;Signal;HPM_P1;HPM_P2
2021/05/17 00:01:21;;;;;;;1.67;1.33;;;;;;;10.66;80.91;92839.66;4971703;28;20023;-65
2021/05/17 00:03:49;;;;;;;3.28;2.28;;;;;;;10.63;81.21;92843.53;4971780;28;20022;-64
2021/05/17 00:06:15;;;;;;;2.17;1.33;;;;;;;10.67;81.16;92843.16;4974288;28;20118;-64
2021/05/17 00:08:41;;;;;;;1.40;1.30;;;;;;;10.53;81.34;92845.47;4992561;28;20034;-65
2021/05/17 00:11:07;;;;;;;2.35;1.58;;;;;;;10.46;81.86;92837.97;4973682;28;20105;-64
2021/05/17 00:13:32;;;;;;;2.00;1.83;;;;;;;10.42;81.72;92837.63;4972609;28;20030;-64
2021/05/17 00:15:58;;;;;;;1.75;1.20;;;;;;;10.32;82.52;92838.81;4973159;28;20035;-64
2021/05/17 00:18:23;;;;;;;2.92;1.92;;;;;;;10.05;83.20;92826.81;4973142;28;20039;-63
2021/05/17 00:20:50;;;;;;;1.83;1.70;;;;;;;10.03;84.09;92841.16;4973204;28;20015;-64
2021/05/17 00:23:15;;;;;;;2.53;1.88;;;;;;;10.13;84.43;92833.78;4973094;28;20026;-64
2021/05/17 00:25:41;;;;;;;1.30;1.20;;;;;;;10.26;83.79;92830.03;4973207;28;20026;-64
2021/05/17 00:28:07;;;;;;;1.70;1.23;;;;;;;10.34;83.63;92831.44;4973215;28;20589;-65
2021/05/17 00:30:32;;;;;;;7.32;2.17;;;;;;;10.39;84.99;92836.03;4973172;28;20512;-63
2021/05/17 00:32:59;;;;;;;1.77;1.67;;;;;;;10.55;85.16;92833.84;4973164;28;20510;-63
2021/05/17 00:35:25;;;;;;;2.03;1.33;;;;;;;10.54;84.47;92832.41;4973140;28;20109;-62
2021/05/17 00:37:54;;;;;;;2.60;2.40;;;;;;;10.62;84.33;92835.84;4972754;28;20110;-63
2021/05/17 00:40:21;;;;;;;2.08;1.83;;;;;;;10.63;83.92;92840.78;4979655;28;20800;-63
2021/05/17 00:42:47;;;;;;;1.10;1.05;;;;;;;10.59;83.36;92829.41;4989920;28;20054;-63
2021/05/17 00:45:15;;;;;;;2.00;1.50;;;;;;;10.67;83.04;92843.16;4972625;28;20033;-63
2021/05/17 00:47:43;;;;;;;1.92;1.35;;;;;;;10.75;82.72;92845.84;4972660;28;20034;-64
2021/05/17 00:50:11;;;;;;;1.40;1.30;;;;;;;10.71;81.65;92853.81;4990435;28;20026;-64
2021/05/17 00:52:36;;;;;;;0.70;0.70;;;;;;;10.66;81.52;92856.22;4984858;28;20070;-63
2021/05/17 00:55:05;;;;;;;2.47;2.00;;;;;;;10.62;82.21;92857.91;4972712;28;20019;-63
2021/05/17 00:57:30;;;;;;;6.10;2.63;;;;;;;10.72;82.72;92869.09;4972821;28;20148;-64
2021/05/17 00:59:56;;;;;;;1.95;1.80;;;;;;;10.66;82.99;92859.00;4971877;28;20027;-65
2021/05/17 01:02:22;;;;;;;2.17;1.73;;;;;;;10.68;82.98;92852.19;4955201;28;20015;-65
2021/05/17 01:04:47;;;;;;;2.97;1.40;;;;;;;10.71;81.56;92854.53;4972009;28;20694;-64
2021/05/17 01:07:14;;;;;;;1.75;1.40;;;;;;;10.58;82.59;92841.03;4970808;28;20034;-64
2021/05/17 01:09:40;;;;;;;1.65;1.33;;;;;;;10.61;81.81;92854.41;4937632;28;20026;-64
2021/05/17 01:12:06;;;;;;;1.45;1.35;;;;;;;10.62;81.67;92849.63;4970772;28;20042;-64
2021/05/17 01:14:33;;;;;;;2.70;1.85;;;;;;;10.40;82.17;92859.53;4971210;28;20048;-64
2021/05/17 01:17:00;;;;;;;4.20;1.88;;;;;;;10.37;82.67;92852.38;4968146;28;20029;-64
2021/05/17 01:19:41;;;;;;;2.17;1.88;;;;;;;10.41;83.03;92854.75;4970885;28;20019;-64
2021/05/17 01:22:22;;;;;;;4.90;2.03;;;;;;;10.17;84.05;92864.47;4969420;28;20106;-65
2021/05/17 01:24:47;;;;;;;3.65;2.47;;;;;;;10.22;84.46;92860.75;4954175;28;20508;-65
2021/05/17 01:27:13;;;;;;;1.65;1.55;;;;;;;10.22;84.54;92862.78;4970955;28;20152;-65
2021/05/17 01:29:42;;;;;;;2.00;1.85;;;;;;;10.16;84.61;92865.00;4951024;28;20653;-65
2021/05/17 01:32:09;;;;;;;1.67;1.58;;;;;;;10.00;85.01;92853.31;4969366;28;20022;-64
2021/05/17 01:34:38;;;;;;;2.15;1.65;;;;;;;10.13;84.75;92863.41;4970927;28;20038;-65
2021/05/17 01:37:03;;;;;;;3.05;1.40;;;;;;;10.25;84.35;92856.88;4970777;28;20018;-64
2021/05/17 01:39:29;;;;;;;2.78;1.33;;;;;;;10.19;84.46;92861.16;4953400;28;20318;-64
2021/05/17 01:41:55;;;;;;;2.58;1.63;;;;;;;10.09;84.63;92866.50;4970565;28;20038;-64
2021/05/17 01:44:23;;;;;;;1.50;1.40;;;;;;;9.88;85.15;92868.81;4970745;28;20050;-64
2021/05/17 01:46:49;;;;;;;1.70;1.60;;;;;;;9.88;85.63;92866.06;4970534;28;20018;-64
2021/05/17 01:49:15;;;;;;;1.50;1.40;;;;;;;9.73;85.42;92864.09;4970520;28;20027;-64
2021/05/17 01:51:47;;;;;;;1.90;1.75;;;;;;;9.77;86.20;92864.44;4970902;28;20427;-64
2021/05/17 01:54:14;;;;;;;2.42;2.20;;;;;;;9.97;85.57;92867.47;4951463;29;20051;-64
2021/05/17 01:56:40;;;;;;;2.88;1.73;;;;;;;10.07;85.83;92863.56;4954489;28;20562;-64
2021/05/17 01:59:07;;;;;;;2.40;1.85;;;;;;;10.17;85.33;92858.97;4970102;28;20042;-64
2021/05/17 02:01:33;;;;;;;1.13;1.02;;;;;;;10.19;83.84;92848.09;4969647;28;20046;-64
2021/05/17 02:03:59;;;;;;;1.80;1.45;;;;;;;10.19;83.10;92841.84;4952116;28;20062;-64
2021/05/17 02:06:24;;;;;;;1.88;1.55;;;;;;;10.41;82.47;92846.50;4953356;28;20133;-64
2021/05/17 02:08:51;;;;;;;1.30;1.25;;;;;;;10.14;82.81;92840.03;4970836;28;20177;-64
2021/05/17 02:11:22;;;;;;;2.38;1.38;;;;;;;10.15;83.21;92839.47;4970549;28;20636;-63
2021/05/17 02:13:48;;;;;;;2.33;1.13;;;;;;;10.18;82.85;92841.09;4971034;28;20022;-63
2021/05/17 02:16:16;;;;;;;1.65;1.48;;;;;;;10.13;82.92;92831.03;4953352;28;20488;-63
2021/05/17 02:18:44;;;;;;;1.63;1.40;;;;;;;10.00;82.72;92822.25;4970611;28;20060;-63
2021/05/17 02:21:11;;;;;;;3.22;2.22;;;;;;;10.12;83.64;92832.31;4970792;28;20077;-64
2021/05/17 02:23:38;;;;;;;2.13;1.92;;;;;;;10.20;83.62;92832.28;4970588;28;20058;-63
2021/05/17 02:26:07;;;;;;;3.05;2.20;;;;;;;10.22;84.08;92827.66;4970803;28;20046;-64
2021/05/17 02:28:36;;;;;;;7.30;3.42;;;;;;;10.40;82.35;92822.94;4970919;28;20026;-64
2021/05/17 02:31:02;;;;;;;2.95;2.00;;;;;;;10.47;82.03;92820.13;4970584;28;20528;-65
2021/05/17 02:33:28;;;;;;;3.50;2.40;;;;;;;10.41;81.99;92819.63;4970806;28;20418;-64
2021/05/17 02:35:57;;;;;;;2.08;1.98;;;;;;;10.38;82.51;92826.25;4970208;28;20035;-64
2021/05/17 02:38:22;;;;;;;2.30;2.10;;;;;;;10.39;82.97;92827.75;4970750;28;20105;-64
2021/05/17 02:40:50;;;;;;;2.88;2.35;;;;;;;10.35;83.12;92824.63;4970489;28;20088;-65
2021/05/17 02:43:15;;;;;;;1.80;1.17;;;;;;;10.21;82.99;92826.19;4970236;28;20047;-65
2021/05/17 02:45:41;;;;;;;1.73;1.60;;;;;;;10.10;82.89;92826.59;4953021;28;20420;-65
2021/05/17 02:48:08;;;;;;;1.58;1.48;;;;;;;9.97;83.29;92829.63;4970476;28;20023;-65
2021/05/17 02:50:44;;;;;;;3.17;2.38;;;;;;;10.01;83.86;92826.47;4970243;28;20037;-65
2021/05/17 02:53:35;;;;;;;2.72;1.88;;;;;;;10.02;83.20;92836.22;4969800;28;20081;-65
2021/05/17 02:56:12;;;;;;;2.40;1.95;;;;;;;9.78;83.53;92832.84;4969848;28;20547;-65
2021/05/17 02:58:42;;;;;;;2.70;1.92;;;;;;;9.68;84.08;92845.72;4969605;28;20057;-65
2021/05/17 03:01:26;;;;;;;2.40;1.60;;;;;;;9.81;84.21;92842.03;4970398;28;20054;-66
2021/05/17 03:03:53;;;;;;;5.65;2.72;;;;;;;9.65;84.90;92841.34;4952891;28;20101;-65
2021/05/17 03:06:21;;;;;;;2.95;2.08;;;;;;;9.86;84.95;92850.06;4952924;28;20551;-65
2021/05/17 03:08:58;;;;;;;2.43;1.60;;;;;;;9.88;84.38;92849.50;4970493;28;20416;-65
2021/05/17 03:11:25;;;;;;;1.63;1.52;;;;;;;9.73;84.92;92846.81;4970050;28;20426;-65
2021/05/17 03:13:52;;;;;;;1.55;1.35;;;;;;;9.62;85.21;92819.66;4970197;28;20026;-65
2021/05/17 03:16:23;;;;;;;2.00;1.85;;;;;;;9.90;85.02;92844.16;4952984;28;20452;-65
2021/05/17 03:18:54;;;;;;;1.67;1.52;;;;;;;10.00;83.98;92842.28;4970116;28;20090;-65
2021/05/17 03:21:23;;;;;;;2.15;1.60;;;;;;;9.93;84.04;92843.78;4970247;28;20101;-65
2021/05/17 03:23:50;;;;;;;1.70;1.27;;;;;;;9.99;83.65;92848.34;4955078;28;20049;-64
2021/05/17 03:26:20;;;;;;;2.28;1.55;;;;;;;9.92;84.31;92844.34;4973402;28;20085;-64
2021/05/17 03:28:45;;;;;;;1.08;0.98;;;;;;;10.03;83.83;92851.47;4956507;28;20030;-64
2021/05/17 03:31:11;;;;;;;2.28;2.08;;;;;;;10.09;84.08;92844.44;4973254;28;20141;-64
2021/05/17 03:33:37;;;;;;;0.98;0.98;;;;;;;10.14;83.30;92840.03;4972731;28;20027;-64
2021/05/17 03:36:04;;;;;;;1.67;1.42;;;;;;;10.33;82.99;92857.56;4972646;28;20026;-64
2021/05/17 03:38:29;;;;;;;2.53;2.28;;;;;;;10.37;83.56;92860.66;4972314;28;20085;-64
2021/05/17 03:40:55;;;;;;;1.40;1.30;;;;;;;10.34;83.36;92858.28;4971861;28;20034;-65
2021/05/17 03:43:21;;;;;;;1.77;1.58;;;;;;;10.41;83.13;92858.25;4970908;28;20149;-64
2021/05/17 03:45:46;;;;;;;1.42;1.33;;;;;;;10.36;83.01;92864.72;4971579;28;20103;-64
2021/05/17 03:48:11;;;;;;;2.38;2.10;;;;;;;10.34;83.01;92856.28;4971943;28;20026;-64
2021/05/17 03:50:37;;;;;;;2.38;1.63;;;;;;;10.47;83.42;92877.34;4971142;28;20034;-64
2021/05/17 03:53:03;;;;;;;1.67;1.58;;;;;;;10.55;82.93;92872.50;4972722;28;20062;-64
2021/05/17 03:55:28;;;;;;;1.65;1.55;;;;;;;10.60;82.40;92874.31;4972849;28;20031;-64
2021/05/17 03:57:56;;;;;;;3.90;3.05;;;;;;;10.62;82.49;92878.00;4973217;28;20034;-64
2021/05/17 04:00:22;;;;;;;4.65;2.70;;;;;;;10.60;81.95;92886.09;4972903;28;20031;-64
2021/05/17 04:02:47;;;;;;;6.15;3.90;;;;;;;10.66;82.17;92894.88;4973198;28;20030;-64
2021/05/17 04:15:51;;;;;;;2.83;2.03;;;;;;;10.73;81.56;92878.81;4972346;28;20027;-64
2021/05/17 04:18:17;;;;;;;1.55;1.27;;;;;;;10.97;80.63;92883.63;4972390;28;20135;-63
2021/05/17 04:20:44;;;;;;;1.38;1.27;;;;;;;11.07;80.13;92887.19;4972325;28;20113;-64
2021/05/17 04:23:09;;;;;;;3.08;2.00;;;;;;;10.90;80.28;92878.88;4972266;28;20033;-64
2021/05/17 04:25:35;;;;;;;1.70;1.60;;;;;;;11.09;79.89;92881.84;4972429;28;20035;-64
2021/05/17 04:28:00;;;;;;;3.20;2.15;;;;;;;10.72;80.05;92889.13;4973615;28;20038;-64
2021/05/17 04:30:26;;;;;;;2.42;2.00;;;;;;;10.92;79.85;92881.81;4991650;28;20034;-64
2021/05/17 04:32:52;;;;;;;1.33;1.13;;;;;;;10.98;79.32;92874.75;4991618;28;20108;-64
2021/05/17 04:35:18;;;;;;;1.50;1.40;;;;;;;11.20;79.02;92876.59;4991513;28;20027;-64
2021/05/17 04:37:43;;;;;;;1.58;1.48;;;;;;;11.20;78.61;92873.09;4991472;28;20662;-64
2021/05/17 04:52:46;;;;;;;2.80;1.30;;;;;;;12.19;76.36;92863.16;5098355;27;888299;-61
2021/05/17 04:55:12;;;;;;;2.33;1.40;;;;;;;12.30;75.59;92861.19;5107592;28;20093;-61
2021/05/17 04:57:37;;;;;;;1.45;1.05;;;;;;;12.13;74.79;92864.72;5107196;28;20031;-61
2021/05/17 05:00:05;;;;;;;2.17;1.70;;;;;;;12.30;75.59;92866.72;5087066;28;20028;-60
2021/05/17 05:02:30;;;;;;;2.05;1.77;;;;;;;12.29;74.69;92849.38;5090382;28;20443;-61
2021/05/17 05:04:56;;;;;;;7.25;4.57;;;;;;;12.51;75.52;92853.13;5099823;28;20027;-60
2021/05/17 05:07:21;;;;;;;2.00;1.55;;;;;;;12.60;76.00;92852.47;5107243;28;20551;-60
2021/05/17 05:09:47;;;;;;;2.10;1.75;;;;;;;12.75;75.75;92850.19;5106887;28;20027;-59
2021/05/17 05:12:12;;;;;;;2.03;1.73;;;;;;;12.77;74.90;92846.84;5107033;28;20019;-60
2021/05/17 05:14:37;;;;;;;1.65;1.52;;;;;;;12.91;74.59;92840.31;5107010;28;20036;-62
2021/05/17 05:17:03;;;;;;;2.13;1.35;;;;;;;13.17;74.38;92846.38;5087092;28;20074;-61
2021/05/17 05:19:29;;;;;;;1.42;1.35;;;;;;;13.30;73.31;92845.97;5086731;28;20066;-60
2021/05/17 05:21:54;;;;;;;2.53;2.13;;;;;;;13.37;73.24;92840.31;5068069;28;20035;-61
2021/05/17 05:24:19;;;;;;;7.00;4.40;;;;;;;13.59;73.04;92841.22;5086462;28;20043;-59
2021/05/17 05:32:22;;;;;;;3.97;2.50;;;;;;;13.98;72.38;92845.44;5092790;28;20024;-59
2021/05/17 05:34:47;;;;;;;3.00;2.25;;;;;;;14.12;72.27;92859.59;5106113;28;20038;-60
2021/05/17 05:37:13;;;;;;;4.35;3.40;;;;;;;14.27;71.59;92860.00;5106561;28;20031;-61
2021/05/17 05:39:38;;;;;;;3.33;2.78;;;;;;;14.36;70.70;92858.56;5106324;28;20632;-59
2021/05/17 05:42:04;;;;;;;2.47;2.17;;;;;;;14.33;70.86;92866.03;5106064;28;20035;-59
2021/05/17 05:44:31;;;;;;;2.50;2.30;;;;;;;14.43;71.14;92869.50;5106460;28;20020;-61
2021/05/17 05:46:57;;;;;;;2.65;1.80;;;;;;;14.63;70.99;92867.41;5106106;28;20059;-60
2021/05/17 05:49:24;;;;;;;2.20;2.00;;;;;;;14.69;70.08;92856.72;5101817;28;20055;-58
2021/05/17 05:51:49;;;;;;;2.90;2.15;;;;;;;14.62;70.53;92854.84;5082744;28;20067;-59
2021/05/17 05:54:16;;;;;;;2.20;1.52;;;;;;;14.95;70.58;92841.13;5072048;28;20409;-58
2021/05/17 05:56:41;;;;;;;2.15;1.63;;;;;;;15.15;69.14;92850.84;5072131;28;20048;-58
2021/05/17 05:59:06;;;;;;;5.80;1.70;;;;;;;15.32;68.74;92856.16;5072344;28;20058;-59
2021/05/17 06:01:32;;;;;;;2.60;1.60;;;;;;;15.44;68.23;92854.19;5072273;28;20513;-60
2021/05/17 06:03:57;;;;;;;2.38;2.17;;;;;;;15.49;67.92;92850.38;5072615;28;20492;-59
2021/05/17 06:06:23;;;;;;;3.20;2.65;;;;;;;15.73;68.72;92854.00;5072498;28;20635;-59
2021/05/17 06:08:48;;;;;;;4.88;2.40;;;;;;;15.93;68.30;92852.53;5084409;28;20515;-60
2021/05/17 06:11:14;;;;;;;3.10;2.80;;;;;;;16.05;67.68;92866.53;5091819;28;20024;-59
2021/05/17 06:13:42;;;;;;;3.53;2.85;;;;;;;15.97;67.98;92871.56;5092419;28;20487;-60
2021/05/17 06:16:08;;;;;;;3.45;2.50;;;;;;;16.35;67.40;92871.25;5092360;28;20024;-60
2021/05/17 06:18:34;;;;;;;4.00;3.28;;;;;;;16.45;65.90;92852.38;5091960;28;20035;-60
2021/05/17 06:21:00;;;;;;;4.05;3.53;;;;;;;15.88;67.65;92842.47;5092313;28;20039;-60
2021/05/17 06:23:29;;;;;;;3.78;3.05;;;;;;;15.37;69.58;92834.91;5090255;28;20028;-60
2021/05/17 06:25:56;;;;;;;2.92;2.20;;;;;;;15.15;70.88;92832.09;5092313;28;20111;-60
2021/05/17 06:28:23;;;;;;;3.25;2.58;;;;;;;15.45;71.88;92818.75;5092396;28;20103;-60
2021/05/17 06:30:53;;;;;;;4.07;3.13;;;;;;;15.74;73.00;92819.31;5091982;28;20102;-59
2021/05/17 06:33:19;;;;;;;;;;;;;;;15.74;72.84;92810.94;5092846;28;20452;-59
2021/05/17 06:35:51;;;;;;;1.60;1.48;;;;;;;15.94;73.41;92801.81;5090385;28;20368;-60
2021/05/17 06:38:16;;;;;;;7.78;2.25;;;;;;;16.40;71.98;92803.28;5081135;28;20020;-60
2021/05/17 06:40:43;;;;;;;2.22;1.88;;;;;;;16.71;71.23;92806.66;5079209;28;20032;-59
2021/05/17 06:43:09;;;;;;;2.28;2.08;;;;;;;16.99;69.92;92813.22;5084267;28;20110;-60
2021/05/17 06:45:35;;;;;;;3.30;2.25;;;;;;;17.09;69.36;92814.53;5080099;28;20027;-61
2021/05/17 06:48:01;;;;;;;2.45;2.17;;;;;;;17.13;68.84;92800.81;5080030;28;20024;-61
2021/05/17 06:50:27;;;;;;;2.58;1.98;;;;;;;17.35;69.38;92802.16;5082582;28;20561;-60
2021/05/17 06:52:53;;;;;;;2.47;2.03;;;;;;;17.60;68.69;92818.28;5079911;28;20044;-59
2021/05/17 06:55:22;;;;;;;1.80;1.55;;;;;;;17.90;67.29;92824.88;5076405;28;20040;-59
2021/05/17 07:00:23;;;;;;;7.05;2.30;;;;;;;18.46;65.42;92813.34;5079615;28;20093;-61
2021/05/17 07:02:48;;;;;;;1.60;1.50;;;;;;;18.58;63.66;92795.16;5090545;28;20024;-60
2021/05/17 07:05:14;;;;;;;2.17;1.98;;;;;;;19.20;63.12;92797.75;5075429;28;20077;-60
2021/05/17 07:12:50;;;;;;;3.05;2.75;;;;;;;20.98;57.15;92790.34;5089289;28;20062;-59
2021/05/17 07:15:15;;;;;;;4.57;2.38;;;;;;;21.75;55.34;92788.81;5087846;28;20023;-60
2021/05/17 07:17:44;;;;;;;1.55;1.00;;;;;;;22.52;53.18;92792.72;5074485;28;20025;-62
2021/05/17 07:20:14;;;;;;;1.73;1.00;;;;;;;23.01;49.14;92796.06;5075868;28;20031;-58
2021/05/17 07:25:23;;;;;;;1.67;1.40;;;;;;;24.24;42.33;92789.19;5077798;28;20531;-60
2021/05/17 07:27:49;;;;;;;1.65;1.55;;;;;;;24.82;41.10;92784.72;5070374;28;20028;-57
2021/05/17 07:30:15;;;;;;;1.10;1.05;;;;;;;24.76;44.54;92782.44;5070020;28;20040;-59
2021/05/17 07:32:41;;;;;;;0.95;0.85;;;;;;;26.14;42.74;92787.81;5089023;28;20028;-59
2021/05/17 07:35:07;;;;;;;1.20;1.10;;;;;;;26.40;38.31;92790.59;5090712;28;20030;-59
2021/05/17 07:37:33;;;;;;;1.75;0.75;;;;;;;25.93;38.84;92799.97;5077475;28;20024;-60
2021/05/17 07:39:59;;;;;;;0.50;0.50;;;;;;;25.11;40.48;92791.94;5070130;28;20040;-58
2021/05/17 07:42:24;;;;;;;2.05;1.92;;;;;;;25.39;39.42;92793.50;5070197;28;20020;-60
2021/05/17 07:44:50;;;;;;;0.77;0.77;;;;;;;25.94;40.30;92795.03;5070014;28;20416;-59
2021/05/17 07:47:15;;;;;;;0.65;0.65;;;;;;;26.75;37.85;92800.66;5070232;28;20024;-57
2021/05/17 07:49:43;;;;;;;0.77;0.73;;;;;;;27.63;38.58;92796.28;5069626;28;20509;-54
2021/05/17 07:52:09;;;;;;;15.38;1.67;;;;;;;27.73;36.39;92791.53;5069837;28;20052;-58
2021/05/17 07:54:37;;;;;;;1.50;1.13;;;;;;;27.29;36.43;92779.25;5088003;28;20415;-57
2021/05/17 07:57:04;;;;;;;1.38;0.95;;;;;;;26.81;37.56;92778.88;5090281;28;20515;-58
2021/05/17 07:59:31;;;;;;;3.92;1.20;;;;;;;26.72;37.75;92785.75;5088905;28;20027;-58
2021/05/17 08:01:56;;;;;;;0.95;0.70;;;;;;;25.19;39.01;92773.13;5089316;28;20097;-58
2021/05/17 08:04:23;;;;;;;3.80;3.40;;;;;;;24.14;41.77;92774.03;5089944;28;20492;-58
2021/05/17 08:06:49;;;;;;;2.88;2.60;;;;;;;23.79;44.24;92758.75;5089949;28;20085;-58
2021/05/17 08:09:14;;;;;;;0.93;0.93;;;;;;;23.50;39.29;92764.78;5071836;28;20028;-59
2021/05/17 08:11:40;;;;;;;0.90;0.60;;;;;;;22.83;43.08;92763.66;5090173;28;20024;-57
2021/05/17 08:14:05;;;;;;;1.48;1.38;;;;;;;21.87;46.19;92761.28;5089616;28;20024;-60
2021/05/17 08:16:32;;;;;;;2.10;1.35;;;;;;;21.05;47.40;92761.22;5085511;28;20059;-59
2021/05/17 08:18:58;;;;;;;2.15;0.82;;;;;;;21.16;47.73;92759.59;5074780;28;20594;-60
2021/05/17 08:21:23;;;;;;;0.57;0.57;;;;;;;21.51;47.11;92759.69;5089498;28;20016;-60
2021/05/17 08:23:49;;;;;;;1.13;0.43;;;;;;;21.66;45.34;92770.16;5089211;28;20089;-58
2021/05/17 08:26:15;;;;;;;0.65;0.65;;;;;;;21.41;46.74;92784.53;5069667;28;20021;-61
2021/05/17 08:28:41;;;;;;;0.55;0.55;;;;;;;21.28;48.20;92788.19;5069807;28;20028;-61
2021/05/17 08:31:09;;;;;;;0.93;0.70;;;;;;;20.93;49.61;92792.25;5084036;28;20016;-61
2021/05/17 08:33:35;;;;;;;0.88;0.88;;;;;;;20.82;50.28;92795.94;5089587;28;20020;-59
2021/05/17 08:36:00;;;;;;;1.60;1.00;;;;;;;20.83;49.06;92774.22;5089701;28;20085;-60
2021/05/17 08:38:26;;;;;;;2.63;1.00;;;;;;;20.86;49.58;92765.25;5090211;28;20020;-61
2021/05/17 08:40:51;;;;;;;1.00;0.88;;;;;;;20.67;51.04;92757.38;5089890;28;20404;-58
2021/05/17 08:43:17;;;;;;;1.33;0.70;;;;;;;20.58;49.46;92769.56;5089460;28;20510;-60
2021/05/17 08:45:44;;;;;;;3.13;1.75;;;;;;;20.31;50.54;92762.00;5087209;28;20427;-57
2021/05/17 08:48:10;;;;;;;0.60;0.60;;;;;;;20.71;51.11;92746.34;5070179;28;20042;-59
2021/05/17 08:50:36;;;;;;;1.92;1.40;;;;;;;21.05;48.06;92750.69;5081794;28;20032;-58
2021/05/17 08:53:02;;;;;;;1.33;1.02;;;;;;;21.13;46.33;92767.91;5072083;28;20075;-60
2021/05/17 08:55:28;;;;;;;1.85;1.23;;;;;;;20.98;45.59;92768.63;5067425;28;20078;-56
2021/05/17 08:57:53;;;;;;;2.83;2.10;;;;;;;21.11;47.75;92773.41;5081459;28;20043;-57
2021/05/17 09:00:20;;;;;;;2.05;1.55;;;;;;;21.27;46.85;92767.09;5081882;28;20025;-57
2021/05/17 09:02:46;;;;;;;8.93;4.28;;;;;;;21.34;46.18;92757.56;5050909;28;20104;-56
2021/05/17 09:05:38;;;;;;;2.45;2.03;;;;;;;21.22;44.99;92759.84;5069234;28;20111;-57
2021/05/17 09:08:04;;;;;;;3.10;2.20;;;;;;;21.18;46.00;92757.56;5064608;28;20036;-57
2021/05/17 09:10:35;;;;;;;3.58;1.88;;;;;;;21.43;47.20;92764.97;5069062;28;20037;-57
2021/05/17 09:13:07;;;;;;;1.58;1.10;;;;;;;21.76;46.35;92762.91;5055442;28;20030;-58
2021/05/17 09:15:35;;;;;;;0.77;0.60;;;;;;;21.98;44.80;92763.13;5088191;28;20089;-58
2021/05/17 09:18:27;;;;;;;1.63;0.60;;;;;;;22.15;45.10;92770.88;5088883;28;20028;-56
2021/05/17 09:20:54;;;;;;;1.27;0.70;;;;;;;22.12;44.56;92768.59;5088796;28;20119;-60
2021/05/17 09:23:19;;;;;;;0.75;0.75;;;;;;;22.12;45.46;92774.94;5089005;28;20026;-60
2021/05/17 09:25:58;;;;;;;1.48;1.38;;;;;;;21.93;45.91;92766.41;5089115;28;20028;-58
2021/05/17 09:28:32;;;;;;;1.77;1.45;;;;;;;21.87;44.38;92764.78;5091628;28;20637;-59
2021/05/17 09:31:09;;;;;;;2.88;0.90;;;;;;;22.07;46.19;92770.50;5091732;28;20028;-59
2021/05/17 09:33:51;;;;;;;0.90;0.88;;;;;;;22.72;45.96;92773.13;5092865;28;20464;-53
2021/05/17 09:36:29;;;;;;;2.75;2.00;;;;;;;23.35;44.65;92772.00;5091743;28;20505;-58
2021/05/17 09:38:56;;;;;;;0.80;0.80;;;;;;;23.63;42.39;92758.19;5091871;28;20031;-59
2021/05/17 09:41:21;;;;;;;1.75;0.80;;;;;;;24.18;42.42;92754.41;5091456;28;20093;-57
2021/05/17 09:43:46;;;;;;;1.20;1.10;;;;;;;24.06;42.29;92761.09;5089374;28;20024;-57
2021/05/17 09:46:12;;;;;;;2.22;1.42;;;;;;;23.73;39.73;92758.56;5089341;28;20024;-59
2021/05/17 09:48:46;;;;;;;0.95;0.63;;;;;;;23.35;41.55;92760.72;5092590;28;20470;-58
2021/05/17 09:51:13;;;;;;;0.82;0.65;;;;;;;23.23;40.81;92748.28;5072577;28;20068;-58
2021/05/17 09:53:42;;;;;;;0.85;0.60;;;;;;;22.75;40.97;92758.47;5072166;28;20028;-58
2021/05/17 09:56:11;;;;;;;3.03;0.75;;;;;;;22.06;44.58;92762.72;5072106;28;20438;-52
2021/05/17 09:58:40;;;;;;;0.43;0.43;;;;;;;21.47;41.84;92762.34;5056615;28;20027;-57
2021/05/17 10:01:11;;;;;;;1.13;0.93;;;;;;;21.18;45.56;92779.31;5090502;28;20116;-55
2021/05/17 10:03:39;;;;;;;0.98;0.95;;;;;;;20.77;46.94;92773.97;5072135;28;20024;-57
2021/05/17 10:06:08;;;;;;;1.70;1.33;;;;;;;20.66;50.33;92786.06;5089177;28;20035;-56
2021/05/17 10:08:33;;;;;;;1.17;1.08;;;;;;;20.57;51.34;92782.16;5072773;28;20882;-57
2021/05/17 10:10:59;;;;;;;2.08;1.20;;;;;;;20.63;51.46;92774.03;5051552;28;20017;-52
2021/05/17 10:13:24;;;;;;;2.58;1.08;;;;;;;20.84;52.16;92782.00;5069769;28;20028;-58
2021/05/17 10:15:52;;;;;;;1.55;1.08;;;;;;;20.98;52.25;92773.50;5068559;28;20032;-58
2021/05/17 10:18:18;;;;;;;4.03;1.25;;;;;;;21.16;51.12;92771.53;5070949;28;20036;-58
2021/05/17 10:20:44;;;;;;;2.60;1.20;;;;;;;21.11;51.65;92776.22;5070440;28;20082;-58
2021/05/17 10:23:10;;;;;;;1.83;1.70;;;;;;;21.05;50.82;92773.16;5082103;28;20017;-54
2021/05/17 10:25:36;;;;;;;2.13;1.65;;;;;;;21.20;50.80;92765.38;5069346;28;20458;-58
2021/05/17 10:28:11;;;;;;;1.40;1.27;;;;;;;21.56;49.13;92764.13;5085971;28;20081;-56
2021/05/17 10:30:38;;;;;;;1.92;0.98;;;;;;;22.26;46.21;92761.44;5074955;28;20034;-58
2021/05/17 10:33:05;;;;;;;1.45;1.30;;;;;;;22.74;45.77;92764.75;5077544;28;20544;-56
2021/05/17 10:35:33;;;;;;;1.30;1.20;;;;;;;23.19;43.04;92748.88;5084020;28;20103;-60
2021/05/17 10:38:43;;;;;;;0.77;0.77;;;;;;;23.86;43.68;92754.78;5080273;28;20059;-59
2021/05/17 10:41:15;;;;;;;1.30;1.05;;;;;;;23.67;42.88;92743.53;5088512;28;20040;-58
2021/05/17 10:46:35;;;;;;;0.75;0.70;;;;;;;23.81;42.97;92746.81;5089109;28;20619;-58
2021/05/17 10:46:50;;;;;;;2.70;1.63;;;;;;;23.76;43.22;92745.97;5070059;28;20039;-58
2021/05/17 10:49:28;;;;;;;0.60;0.60;;;;;;;23.79;40.80;92744.66;5077725;28;20009;-59
2021/05/17 10:52:19;;;;;;;0.70;0.70;;;;;;;23.65;39.36;92735.72;5069579;28;20080;-58
2021/05/17 10:54:46;;;;;;;0.32;0.32;;;;;;;23.42;38.83;92741.22;5080369;28;20124;-55
2021/05/17 10:57:36;;;;;;;0.88;0.85;;;;;;;23.57;41.02;92752.34;5081144;28;20031;-57
2021/05/17 11:02:45;;;;;;;1.23;0.57;;;;;;;22.43;41.89;92752.31;5088805;28;20703;-54
2021/05/17 11:05:15;;;;;;;0.75;0.63;;;;;;;22.07;42.61;92742.41;5076986;28;20032;-57
2021/05/17 11:07:58;;;;;;;0.60;0.60;;;;;;;21.64;43.62;92744.81;5084980;28;20487;-57
2021/05/17 11:10:26;;;;;;;1.23;1.05;;;;;;;21.24;44.56;92748.69;5073607;28;20035;-57
2021/05/17 11:12:59;;;;;;;1.42;0.63;;;;;;;20.92;46.90;92748.00;5081921;28;20036;-56
2021/05/17 11:15:26;;;;;;;0.93;0.88;;;;;;;20.52;48.51;92746.88;5073451;28;20029;-57
2021/05/17 11:18:07;;;;;;;4.05;1.58;;;;;;;20.51;49.28;92758.72;5068527;28;20026;-56
2021/05/17 11:20:48;;;;;;;4.30;2.75;;;;;;;20.49;49.93;92755.81;5074880;28;20147;-56
2021/05/17 11:23:24;;;;;;;1.45;1.35;;;;;;;20.50;50.30;92758.00;5075834;28;20474;-56
2021/05/17 11:28:42;;;;;;;28.67;2.72;;;;;;;20.44;50.21;92756.97;5074136;28;20032;-48
2021/05/17 11:33:55;;;;;;;1.92;1.80;;;;;;;20.55;50.30;92750.50;5084460;28;20097;-46
2021/05/17 11:36:21;;;;;;;2.22;2.03;;;;;;;20.51;51.53;92748.22;5071957;28;20030;-55
2021/05/17 11:39:17;;;;;;;2.50;2.08;;;;;;;20.51;50.19;92753.13;5087949;28;20032;-57
2021/05/17 11:41:55;;;;;;;2.58;1.50;;;;;;;20.46;50.53;92752.19;5071541;28;20032;-55
2021/05/17 11:44:39;;;;;;;1.88;1.65;;;;;;;20.01;50.18;92754.94;5067467;28;20033;-55
2021/05/17 11:47:06;;;;;;;2.80;2.17;;;;;;;19.87;51.08;92759.88;5078880;28;20043;-55
2021/05/17 11:49:33;;;;;;;3.83;1.73;;;;;;;19.87;52.04;92743.06;5077538;28;20441;-57
2021/05/17 11:52:03;;;;;;;19.52;12.02;;;;;;;19.84;52.41;92749.19;5068129;28;20048;-56
2021/05/17 11:54:40;;;;;;;1.80;1.60;;;;;;;19.95;54.44;92748.31;5067420;28;20688;-57
2021/05/17 11:57:06;;;;;;;3.67;1.77;;;;;;;20.05;54.44;92743.94;5078872;28;20047;-55
2021/05/17 11:59:33;;;;;;;0.98;0.90;;;;;;;20.16;50.66;92742.34;5072883;28;20397;-57
2021/05/17 12:02:05;;;;;;;1.48;1.10;;;;;;;20.08;52.68;92747.53;5084174;28;20142;-56
2021/05/17 12:04:35;;;;;;;2.50;2.15;;;;;;;19.94;52.21;92747.59;5073477;28;20042;-57
2021/05/17 12:07:03;;;;;;;4.35;1.90;;;;;;;19.63;54.91;92737.00;5076660;28;20037;-58
2021/05/17 12:09:40;;;;;;;7.00;6.20;;;;;;;18.92;52.03;92752.25;5081980;28;20039;-57
2021/05/17 12:12:17;;;;;;;3.38;2.70;;;;;;;19.09;53.66;92739.81;5070491;28;20056;-64
2021/05/17 12:14:50;;;;;;;16.80;2.67;;;;;;;19.32;54.74;92741.66;5082676;28;20035;-63
2021/05/17 12:17:23;;;;;;;2.88;1.63;;;;;;;19.32;55.53;92741.66;5086716;28;20592;-59
2021/05/17 12:19:51;;;;;;;2.33;2.13;;;;;;;19.38;55.16;92744.81;5076497;28;20116;-56
2021/05/17 12:22:24;;;;;;;2.67;1.55;;;;;;;19.22;55.77;92744.69;5085112;28;20029;-59
2021/05/17 12:24:51;;;;;;;1.73;1.60;;;;;;;19.16;55.73;92741.59;5076334;28;20062;-56
2021/05/17 12:27:18;;;;;;;5.28;4.75;;;;;;;19.07;54.54;92739.00;5087690;28;20028;-59